Weather at Chino Airport

Public forecast

Using degrees Fahrenheit for public forecast. Weather courtesy of forecast.io.

Current aviation weather report (METAR) for Chino Airport

Retrieved 2021/10/28 19:53 UTC (1 hour ago):

KCNO 281953Z 00000KT 10SM CLR 34/04 A3002 RMK AO2 SLP160 T03390044

Closest aviation forecast (TAF) to Chino Airport

Closest forecast is Ontario International Airport, 5.2 nm (9.6 km) NNE. Retrieved 2021/10/28 18:33 UTC (2 hours ago):

TAF KONT 281731Z 2818/2924 25004KT P6SM SKC WS020/02020KT FM282030 28008KT P6SM SKC FM290300 VRB04KT P6SM SKC FM292100 26010KT P6SM SKC